Time,TemperatureF,DewpointF,PressureIn,WindDirection,WindDirectionDegrees,WindSpeedMPH,WindSpeedGustMPH,Humidity,HourlyPrecipIn,Conditions,Clouds,dailyrainin,SoftwareType,DateUTC
2013-06-23 00:00:00,70.4,69.2,30.15,West,269,0.0,1.0,96,0.00,,,0.00,Wunderground v.1.15,2013-06-23 04:00:00,
2013-06-23 00:01:00,70.4,69.2,30.15,West,270,0.0,1.0,96,0.00,,,0.00,Wunderground v.1.15,2013-06-23 04:01:00,
2013-06-23 00:02:00,70.4,69.2,30.15,West,270,0.0,1.0,96,0.00,,,0.00,Wunderground v.1.15,2013-06-23 04:02:00,
2013-06-23 00:03:00,70.4,69.2,30.15,West,270,0.0,1.0,96,0.00,,,0.00,Wunderground v.1.15,2013-06-23 04:03:00,
2013-06-23 00:05:00,70.3,69.1,30.15,West,269,0.0,1.0,96,0.00,,,0.00,Wunderground v.1.15,2013-06-23 04:05:00,
2013-06-23 00:07:00,70.3,69.1,30.15,West,270,0.0,1.0,96,0.00,,,0.00,Wunderground v.1.15,2013-06-23 04:07:00,
2013-06-23 00:09:00,70.3,69.1,30.15,West,270,0.0,1.0,96,0.00,,,0.00,Wunderground v.1.15,2013-06-23 04:09:00,
2013-06-23 00:10:00,70.3,69.1,30.15,West,270,0.0,1.0,96,0.00,,,0.00,Wunderground v.1.15,2013-06-23 04:10:00,
2013-06-23 00:12:00,70.3,69.1,30.15,West,270,0.0,1.0,96,0.00,,,0.00,Wunderground v.1.15,2013-06-23 04:12:00,
2013-06-23 00:13:00,70.3,69.1,30.15,West,269,0.0,1.0,96,0.00,,,0.00,Wunderground v.1.15,2013-06-23 04:13:00,
2013-06-23 00:15:00,70.2,69.0,30.15,West,270,0.0,1.0,96,0.00,,,0.00,Wunderground v.1.15,2013-06-23 04:15:00,
2013-06-23 00:16:00,70.2,69.0,30.15,West,270,0.0,1.0,96,0.00,,,0.00,Wunderground v.1.15,2013-06-23 04:16:00,
2013-06-23 00:18:00,70.2,69.0,30.15,West,269,0.0,1.0,96,0.00,,,0.00,Wunderground v.1.15,2013-06-23 04:18:00,
2013-06-23 00:19:00,70.2,69.0,30.15,West,270,0.0,1.0,96,0.00,,,0.00,Wunderground v.1.15,2013-06-23 04:19:00,
2013-06-23 00:22:00,70.1,68.9,30.15,West,270,0.0,1.0,96,0.00,,,0.00,Wunderground v.1.15,2013-06-23 04:22:00,
2013-06-23 00:24:00,70.1,68.9,30.15,West,270,0.0,1.0,96,0.00,,,0.00,Wunderground v.1.15,2013-06-23 04:24:00,
2013-06-23 00:25:00,70.1,68.9,30.15,West,270,0.0,1.0,96,0.00,,,0.00,Wunderground v.1.15,2013-06-23 04:25:00,
2013-06-23 00:26:00,70.1,68.9,30.15,West,270,0.0,1.0,96,0.00,,,0.00,Wunderground v.1.15,2013-06-23 04:26:00,
2013-06-23 00:27:00,70.1,68.9,30.15,West,269,0.0,1.0,96,0.00,,,0.00,Wunderground v.1.15,2013-06-23 04:27:00,
2013-06-23 00:31:00,70.0,68.8,30.15,West,270,0.0,1.0,96,0.00,,,0.00,Wunderground v.1.15,2013-06-23 04:31:00,
2013-06-23 00:33:00,70.0,68.8,30.15,West,270,0.0,1.0,96,0.00,,,0.00,Wunderground v.1.15,2013-06-23 04:33:00,
2013-06-23 00:35:00,70.0,68.8,30.15,West,270,0.0,1.0,96,0.00,,,0.00,Wunderground v.1.15,2013-06-23 04:35:00,
2013-06-23 00:36:00,69.9,68.7,30.15,West,269,0.0,1.0,96,0.00,,,0.00,Wunderground v.1.15,2013-06-23 04:36:00,
2013-06-23 00:39:00,69.9,68.7,30.15,West,270,0.0,1.0,96,0.00,,,0.00,Wunderground v.1.15,2013-06-23 04:39:00,
2013-06-23 00:40:00,69.9,68.7,30.15,West,270,0.0,1.0,96,0.00,,,0.00,Wunderground v.1.15,2013-06-23 04:40:00,
2013-06-23 00:41:00,69.9,68.7,30.15,West,269,0.0,1.0,96,0.00,,,0.00,Wunderground v.1.15,2013-06-23 04:41:00,
2013-06-23 00:42:00,69.9,68.7,30.15,West,270,0.0,1.0,96,0.00,,,0.00,Wunderground v.1.15,2013-06-23 04:42:00,
2013-06-23 00:47:00,69.8,68.6,30.15,West,270,0.0,1.0,96,0.00,,,0.00,Wunderground v.1.15,2013-06-23 04:47:00,
2013-06-23 00:49:00,69.8,68.6,30.15,West,269,0.0,1.0,96,0.00,,,0.00,Wunderground v.1.15,2013-06-23 04:49:00,
2013-06-23 00:50:00,69.8,68.6,30.15,West,270,0.0,1.0,96,0.00,,,0.00,Wunderground v.1.15,2013-06-23 04:50:00,
2013-06-23 10:16:00,78.3,74.1,30.19,West,267,0.0,1.0,87,0.00,,,0.00,Wunderground v.1.15,2013-06-23 14:16:00,
2013-06-23 10:17:00,78.5,74.3,30.19,West,266,0.0,1.0,87,0.00,,,0.00,Wunderground v.1.15,2013-06-23 14:17:00,
2013-06-23 10:18:00,78.5,74.3,30.19,West,265,0.0,1.0,87,0.00,,,0.00,Wunderground v.1.15,2013-06-23 14:18:00,
2013-06-23 10:19:00,78.6,74.1,30.19,West,265,0.0,1.0,86,0.00,,,0.00,Wunderground v.1.15,2013-06-23 14:19:00,
2013-06-23 10:23:00,79.0,74.1,30.19,West,265,0.0,0.0,85,0.00,,,0.00,Wunderground v.1.15,2013-06-23 14:23:00,
2013-06-23 10:24:00,79.1,74.2,30.19,West,266,0.0,0.0,85,0.00,,,0.00,Wunderground v.1.15,2013-06-23 14:24:00,
2013-06-23 10:26:00,79.1,74.2,30.19,West,265,0.0,0.0,85,0.00,,,0.00,Wunderground v.1.15,2013-06-23 14:26:00,
2013-06-23 10:27:00,79.1,74.5,30.19,West,265,0.0,0.0,86,0.00,,,0.00,Wunderground v.1.15,2013-06-23 14:27:00,
2013-06-23 10:29:00,79.1,74.5,30.19,West,265,0.0,0.0,86,0.00,,,0.00,Wunderground v.1.15,2013-06-23 14:29:00,
2013-06-23 10:31:00,79.1,74.2,30.19,West,266,0.0,0.0,85,0.00,,,0.00,Wunderground v.1.15,2013-06-23 14:31:00,
2013-06-23 10:33:00,79.1,74.5,30.19,West,265,0.0,0.0,86,0.00,,,0.00,Wunderground v.1.15,2013-06-23 14:33:00,
2013-06-23 10:34:00,79.1,74.5,30.19,West,266,0.0,0.0,86,0.00,,,0.00,Wunderground v.1.15,2013-06-23 14:34:00,
2013-06-23 10:37:00,78.9,74.4,30.19,West,265,0.0,0.0,86,0.00,,,0.00,Wunderground v.1.15,2013-06-23 14:37:00,
2013-06-23 10:39:00,78.8,74.3,30.19,West,266,0.0,0.0,86,0.00,,,0.00,Wunderground v.1.15,2013-06-23 14:39:00,
2013-06-23 10:41:00,78.8,74.3,30.19,West,266,0.0,0.0,86,0.00,,,0.00,Wunderground v.1.15,2013-06-23 14:41:00,
2013-06-23 10:43:00,78.8,73.9,30.19,West,266,0.0,0.0,85,0.00,,,0.00,Wunderground v.1.15,2013-06-23 14:43:00,
2013-06-23 10:44:00,78.8,73.9,30.19,West,265,0.0,0.0,85,0.00,,,0.00,Wunderground v.1.15,2013-06-23 14:44:00,
2013-06-23 10:47:00,78.8,73.9,30.19,West,265,0.0,0.0,85,0.00,,,0.00,Wunderground v.1.15,2013-06-23 14:47:00,
2013-06-23 10:48:00,78.8,74.3,30.19,West,265,0.0,0.0,86,0.00,,,0.00,Wunderground v.1.15,2013-06-23 14:48:00,
2013-06-23 10:49:00,78.8,73.6,30.19,SW,236,0.0,1.0,84,0.00,,,0.00,Wunderground v.1.15,2013-06-23 14:49:00,
2013-06-23 10:51:00,78.9,73.7,30.19,SW,236,0.0,1.0,84,0.00,,,0.00,Wunderground v.1.15,2013-06-23 14:51:00,
2013-06-23 10:52:00,78.9,73.7,30.19,SW,235,0.0,1.0,84,0.00,,,0.00,Wunderground v.1.15,2013-06-23 14:52:00,
2013-06-23 10:54:00,79.1,74.2,30.20,SW,235,0.0,1.0,85,0.00,,,0.00,Wunderground v.1.15,2013-06-23 14:54:00,
2013-06-23 10:57:00,79.2,74.3,30.20,SW,235,0.0,1.0,85,0.00,,,0.00,Wunderground v.1.15,2013-06-23 14:57:00,
2013-06-23 10:59:00,79.3,74.0,30.20,SW,235,0.0,1.0,84,0.00,,,0.00,Wunderground v.1.15,2013-06-23 14:59:00,
2013-06-23 11:00:00,79.3,74.4,30.20,SW,235,0.0,1.0,85,0.00,,,0.00,Wunderground v.1.15,2013-06-23 15:00:00,
2013-06-23 11:03:00,79.4,74.5,30.20,SW,235,0.0,1.0,85,0.00,,,0.00,Wunderground v.1.15,2013-06-23 15:03:00,
2013-06-23 11:04:00,79.3,74.0,30.19,SW,235,0.0,1.0,84,0.00,,,0.00,Wunderground v.1.15,2013-06-23 15:04:00,
2013-06-23 11:05:00,79.3,74.4,30.19,SW,236,0.0,1.0,85,0.00,,,0.00,Wunderground v.1.15,2013-06-23 15:05:00,
2013-06-23 11:07:00,79.4,74.1,30.19,SW,236,0.0,1.0,84,0.00,,,0.00,Wunderground v.1.15,2013-06-23 15:07:00,
2013-06-23 11:10:00,79.4,74.1,30.19,SW,236,0.0,0.0,84,0.00,,,0.00,Wunderground v.1.15,2013-06-23 15:10:00,
2013-06-23 11:12:00,79.5,73.9,30.19,WSW,237,0.0,0.0,83,0.00,,,0.00,Wunderground v.1.15,2013-06-23 15:12:00,
2013-06-23 11:13:00,79.5,74.2,30.19,SW,236,0.0,0.0,84,0.00,,,0.00,Wunderground v.1.15,2013-06-23 15:13:00,
2013-06-23 11:15:00,79.6,74.3,30.19,WSW,237,0.0,0.0,84,0.00,,,0.00,Wunderground v.1.15,2013-06-23 15:15:00,
2013-06-23 11:18:00,79.7,73.7,30.19,SW,236,0.0,0.0,82,0.00,,,0.00,Wunderground v.1.15,2013-06-23 15:18:00,
2013-06-23 11:20:00,79.7,73.7,30.19,SW,236,0.0,0.0,82,0.00,,,0.00,Wunderground v.1.15,2013-06-23 15:20:00,
2013-06-23 11:23:00,79.9,73.9,30.19,SW,236,0.0,0.0,82,0.00,,,0.00,Wunderground v.1.15,2013-06-23 15:23:00,
2013-06-23 11:26:00,80.0,74.4,30.19,SW,236,0.0,0.0,83,0.00,,,0.00,Wunderground v.1.15,2013-06-23 15:26:00,
2013-06-23 11:28:00,80.0,74.4,30.19,SW,236,0.0,0.0,83,0.00,,,0.00,Wunderground v.1.15,2013-06-23 15:28:00,
2013-06-23 11:31:00,80.1,74.1,30.19,SW,236,0.0,0.0,82,0.00,,,0.00,Wunderground v.1.15,2013-06-23 15:31:00,
2013-06-23 11:32:00,80.2,74.2,30.19,SW,236,0.0,0.0,82,0.00,,,0.00,Wunderground v.1.15,2013-06-23 15:32:00,
2013-06-23 11:33:00,80.3,74.3,30.19,WSW,237,0.0,0.0,82,0.00,,,0.00,Wunderground v.1.15,2013-06-23 15:33:00,
2013-06-23 11:34:00,80.3,74.3,30.19,SW,236,0.0,0.0,82,0.00,,,0.00,Wunderground v.1.15,2013-06-23 15:34:00,
2013-06-23 11:37:00,80.5,74.1,30.19,SW,217,0.0,0.0,81,0.00,,,0.00,Wunderground v.1.15,2013-06-23 15:37:00,
2013-06-23 11:39:00,80.8,74.8,30.19,SW,217,0.0,0.0,82,0.00,,,0.00,Wunderground v.1.15,2013-06-23 15:39:00,
2013-06-23 11:40:00,80.9,74.1,30.19,SW,217,0.0,0.0,80,0.00,,,0.00,Wunderground v.1.15,2013-06-23 15:40:00,
2013-06-23 11:41:00,81.0,74.2,30.19,SW,217,0.0,0.0,80,0.00,,,0.00,Wunderground v.1.15,2013-06-23 15:41:00,
2013-06-23 11:45:00,81.2,74.8,30.19,SW,217,0.0,0.0,81,0.00,,,0.00,Wunderground v.1.15,2013-06-23 15:45:00,
2013-06-23 11:46:00,81.4,75.4,30.19,SW,217,0.0,0.0,82,0.00,,,0.00,Wunderground v.1.15,2013-06-23 15:46:00,
2013-06-23 11:49:00,81.7,75.3,30.19,SW,219,0.0,0.0,81,0.00,,,0.00,Wunderground v.1.15,2013-06-23 15:49:00,
2013-06-23 11:50:00,81.9,74.4,30.19,SSW,201,0.0,0.0,78,0.00,,,0.00,Wunderground v.1.15,2013-06-23 15:50:00,
2013-06-23 11:54:00,82.4,75.2,30.19,SSW,201,0.0,0.0,79,0.00,,,0.00,Wunderground v.1.15,2013-06-23 15:54:00,
2013-06-23 11:56:00,82.6,75.4,30.19,SSW,201,0.0,0.0,79,0.00,,,0.00,Wunderground v.1.15,2013-06-23 15:56:00,
2013-06-23 11:58:00,82.8,74.8,30.19,SSW,201,0.0,0.0,77,0.00,,,0.00,Wunderground v.1.15,2013-06-23 15:58:00,
2013-06-23 12:01:00,83.0,75.4,30.18,SSW,201,0.0,0.0,78,0.00,,,0.00,Wunderground v.1.15,2013-06-23 16:01:00,
2013-06-23 12:02:00,83.0,74.6,30.18,South,187,0.0,0.0,76,0.00,,,0.00,Wunderground v.1.15,2013-06-23 16:02:00,
2013-06-23 12:04:00,83.1,74.4,30.18,South,187,0.0,0.0,75,0.00,,,0.00,Wunderground v.1.15,2013-06-23 16:04:00,
2013-06-23 12:06:00,83.2,74.4,30.18,South,187,0.0,0.0,75,0.00,,,0.00,Wunderground v.1.15,2013-06-23 16:06:00,
2013-06-23 12:08:00,83.5,75.1,30.18,South,188,0.0,0.0,76,0.00,,,0.00,Wunderground v.1.15,2013-06-23 16:08:00,
2013-06-23 12:12:00,83.8,74.6,30.18,SE,144,0.0,0.0,74,0.00,,,0.00,Wunderground v.1.15,2013-06-23 16:12:00,
2013-06-23 12:13:00,83.9,74.7,30.18,WSW,255,0.0,1.0,74,0.00,,,0.00,Wunderground v.1.15,2013-06-23 16:13:00,
2013-06-23 12:15:00,84.1,74.1,30.18,WSW,255,0.0,1.0,72,0.00,,,0.00,Wunderground v.1.15,2013-06-23 16:15:00,
2013-06-23 12:16:00,84.3,74.7,30.18,WSW,255,0.0,1.0,73,0.00,,,0.00,Wunderground v.1.15,2013-06-23 16:16:00,
2013-06-23 12:18:00,84.6,74.6,30.18,WSW,255,0.0,1.0,72,0.00,,,0.00,Wunderground v.1.15,2013-06-23 16:18:00,
2013-06-23 12:20:00,84.7,75.1,30.18,WSW,255,0.0,0.0,73,0.00,,,0.00,Wunderground v.1.15,2013-06-23 16:20:00,
2013-06-23 12:24:00,84.6,74.6,30.18,WSW,255,0.0,0.0,72,0.00,,,0.00,Wunderground v.1.15,2013-06-23 16:24:00,
2013-06-23 12:26:00,84.7,74.7,30.18,WSW,242,0.0,1.0,72,0.00,,,0.00,Wunderground v.1.15,2013-06-23 16:26:00,
2013-06-23 12:27:00,84.7,74.3,30.18,WSW,243,0.0,1.0,71,0.00,,,0.00,Wunderground v.1.15,2013-06-23 16:27:00,
2013-06-23 12:28:00,84.8,74.3,30.18,WSW,246,0.0,1.0,71,0.00,,,0.00,Wunderground v.1.15,2013-06-23 16:28:00,
2013-06-23 12:29:00,84.8,75.2,30.18,WSW,246,0.0,0.0,73,0.00,,,0.00,Wunderground v.1.15,2013-06-23 16:29:00,
2013-06-23 12:31:00,85.1,75.1,30.18,WSW,246,0.0,0.0,72,0.00,,,0.00,Wunderground v.1.15,2013-06-23 16:31:00,
2013-06-23 12:34:00,85.2,74.3,30.18,SSW,195,0.0,0.0,70,0.00,,,0.00,Wunderground v.1.15,2013-06-23 16:34:00,
2013-06-23 12:36:00,85.0,74.1,30.18,WSW,256,0.0,1.0,70,0.00,,,0.00,Wunderground v.1.15,2013-06-23 16:36:00,
2013-06-23 12:39:00,84.4,74.0,30.18,WSW,256,0.0,0.0,71,0.00,,,0.00,Wunderground v.1.15,2013-06-23 16:39:00,
2013-06-23 12:40:00,84.3,73.9,30.17,WSW,257,0.0,0.0,71,0.00,,,0.00,Wunderground v.1.15,2013-06-23 16:40:00,
2013-06-23 12:41:00,84.1,74.5,30.18,WSW,256,0.0,0.0,73,0.00,,,0.00,Wunderground v.1.15,2013-06-23 16:41:00,
2013-06-23 12:45:00,83.8,74.6,30.18,West,269,0.0,1.0,74,0.00,,,0.00,Wunderground v.1.15,2013-06-23 16:45:00,
2013-06-23 12:46:00,83.7,74.5,30.18,West,265,0.0,1.0,74,0.00,,,0.00,Wunderground v.1.15,2013-06-23 16:46:00,
2013-06-23 12:48:00,83.3,74.5,30.18,West,269,0.0,1.0,75,0.00,,,0.00,Wunderground v.1.15,2013-06-23 16:48:00,
2013-06-23 12:49:00,83.2,74.8,30.18,West,269,0.0,0.0,76,0.00,,,0.00,Wunderground v.1.15,2013-06-23 16:49:00,
2013-06-23 12:53:00,82.8,74.5,30.17,West,269,0.0,1.0,76,0.00,,,0.00,Wunderground v.1.15,2013-06-23 16:53:00,
2013-06-23 12:54:00,82.7,74.4,30.18,West,269,0.0,1.0,76,0.00,,,0.00,Wunderground v.1.15,2013-06-23 16:54:00,
2013-06-23 12:55:00,82.6,74.3,30.17,WSW,242,0.0,1.0,76,0.00,,,0.00,Wunderground v.1.15,2013-06-23 16:55:00,
2013-06-23 12:57:00,82.4,74.5,30.18,WNW,297,0.0,1.0,77,0.00,,,0.00,Wunderground v.1.15,2013-06-23 16:57:00,
2013-06-23 12:58:00,82.3,74.4,30.18,West,264,0.0,1.0,77,0.00,,,0.00,Wunderground v.1.15,2013-06-23 16:58:00,
2013-06-23 12:59:00,82.1,74.2,30.18,East,93,0.0,0.0,77,0.00,,,0.00,Wunderground v.1.15,2013-06-23 16:59:00,
2013-06-23 13:02:00,81.8,74.3,30.17,WSW,249,1.0,1.0,78,0.00,,,0.00,Wunderground v.1.15,2013-06-23 17:02:00,
2013-06-23 13:03:00,81.8,74.6,30.17,WSW,249,1.0,1.0,79,0.00,,,0.00,Wunderground v.1.15,2013-06-23 17:03:00,
2013-06-23 13:04:00,81.8,75.0,30.17,WSW,248,1.0,1.0,80,0.00,,,0.00,Wunderground v.1.15,2013-06-23 17:04:00,
2013-06-23 13:06:00,82.0,75.2,30.17,WSW,252,0.0,1.0,80,0.00,,,0.00,Wunderground v.1.15,2013-06-23 17:06:00,
2013-06-23 13:09:00,82.1,74.9,30.17,WSW,253,0.0,0.0,79,0.00,,,0.00,Wunderground v.1.15,2013-06-23 17:09:00,
2013-06-23 13:10:00,82.1,74.9,30.17,SSE,154,0.0,0.0,79,0.00,,,0.00,Wunderground v.1.15,2013-06-23 17:10:00,
2013-06-23 13:11:00,82.1,74.9,30.18,SSE,159,0.0,0.0,79,0.00,,,0.00,Wunderground v.1.15,2013-06-23 17:11:00,
2013-06-23 13:15:00,82.5,74.9,30.17,ESE,105,0.0,1.0,78,0.00,,,0.00,Wunderground v.1.15,2013-06-23 17:15:00,
2013-06-23 13:16:00,82.4,74.8,30.17,ESE,104,0.0,1.0,78,0.00,,,0.00,Wunderground v.1.15,2013-06-23 17:16:00,
2013-06-23 13:17:00,82.4,74.8,30.17,East,91,0.0,1.0,78,0.00,,,0.00,Wunderground v.1.15,2013-06-23 17:17:00,
2013-06-23 13:20:00,82.1,74.9,30.17,East,86,0.0,1.0,79,0.00,,,0.00,Wunderground v.1.15,2013-06-23 17:20:00,
2013-06-23 13:23:00,82.2,75.4,30.17,East,86,0.0,1.0,80,0.00,,,0.00,Wunderground v.1.15,2013-06-23 17:23:00,
2013-06-23 13:24:00,82.3,75.1,30.17,East,85,0.0,1.0,79,0.00,,,0.00,Wunderground v.1.15,2013-06-23 17:24:00,
2013-06-23 13:26:00,82.5,74.9,30.17,East,84,0.0,1.0,78,0.00,,,0.00,Wunderground v.1.15,2013-06-23 17:26:00,
2013-06-23 13:28:00,82.4,74.8,30.17,East,89,0.0,1.0,78,0.00,,,0.00,Wunderground v.1.15,2013-06-23 17:28:00,
2013-06-23 13:31:00,82.1,75.3,30.17,East,94,0.0,0.0,80,0.00,,,0.00,Wunderground v.1.15,2013-06-23 17:31:00,
2013-06-23 13:32:00,82.2,75.4,30.17,ESE,117,0.0,0.0,80,0.00,,,0.00,Wunderground v.1.15,2013-06-23 17:32:00,
2013-06-23 13:35:00,82.6,75.4,30.17,WSW,241,0.0,1.0,79,0.00,,,0.00,Wunderground v.1.15,2013-06-23 17:35:00,
2013-06-23 13:37:00,83.0,75.8,30.17,WSW,248,0.0,1.0,79,0.00,,,0.00,Wunderground v.1.15,2013-06-23 17:37:00,
2013-06-23 13:41:00,83.7,74.9,30.17,ENE,77,0.0,1.0,75,0.00,,,0.00,Wunderground v.1.15,2013-06-23 17:41:00,
2013-06-23 13:42:00,83.7,75.3,30.17,SE,128,0.0,1.0,76,0.00,,,0.00,Wunderground v.1.15,2013-06-23 17:42:00,
2013-06-23 13:43:00,83.7,74.9,30.16,WNW,300,0.0,2.0,75,0.00,,,0.00,Wunderground v.1.15,2013-06-23 17:43:00,
2013-06-23 13:44:00,83.7,74.1,30.16,West,259,0.0,2.0,73,0.00,,,0.00,Wunderground v.1.15,2013-06-23 17:44:00,
2013-06-23 13:48:00,83.7,74.1,30.16,WSW,253,0.0,2.0,73,0.00,,,0.00,Wunderground v.1.15,2013-06-23 17:48:00,
2013-06-23 13:50:00,83.9,73.9,30.16,East,101,0.0,0.0,72,0.00,,,0.00,Wunderground v.1.15,2013-06-23 17:50:00,
2013-06-23 13:51:00,84.0,74.0,30.16,ESE,102,0.0,0.0,72,0.00,,,0.00,Wunderground v.1.15,2013-06-23 17:51:00,
2013-06-23 13:53:00,84.3,74.7,30.16,WSW,253,0.0,0.0,73,0.00,,,0.00,Wunderground v.1.15,2013-06-23 17:53:00,
2013-06-23 13:54:00,84.5,74.5,30.16,WSW,250,0.0,0.0,72,0.00,,,0.00,Wunderground v.1.15,2013-06-23 17:54:00,
2013-06-23 13:55:00,84.7,74.7,30.16,WSW,252,0.0,0.0,72,0.00,,,0.00,Wunderground v.1.15,2013-06-23 17:55:00,
2013-06-23 13:57:00,85.0,74.5,30.16,ESE,105,0.0,0.0,71,0.00,,,0.00,Wunderground v.1.15,2013-06-23 17:57:00,
2013-06-23 13:58:00,85.1,74.2,30.16,East,86,0.0,0.0,70,0.00,,,0.00,Wunderground v.1.15,2013-06-23 17:58:00,
2013-06-23 14:00:00,85.4,74.1,30.17,ESE,105,0.0,0.0,69,0.00,,,0.00,Wunderground v.1.15,2013-06-23 18:00:00,
2013-06-23 14:01:00,85.4,74.1,30.17,East,100,0.0,0.0,69,0.00,,,0.00,Wunderground v.1.15,2013-06-23 18:01:00,
2013-06-23 14:03:00,85.7,73.9,30.17,WSW,256,0.0,0.0,68,0.00,,,0.00,Wunderground v.1.15,2013-06-23 18:03:00,
2013-06-23 14:05:00,85.9,74.5,30.17,West,269,0.0,1.0,69,0.00,,,0.00,Wunderground v.1.15,2013-06-23 18:05:00,
2013-06-23 14:09:00,85.8,73.1,30.16,East,88,0.0,0.0,66,0.00,,,0.00,Wunderground v.1.15,2013-06-23 18:09:00,
2013-06-23 14:10:00,85.7,73.5,30.16,WNW,297,0.0,1.0,67,0.00,,,0.00,Wunderground v.1.15,2013-06-23 18:10:00,
2013-06-23 14:12:00,85.4,73.2,30.16,West,276,0.0,1.0,67,0.00,,,0.00,Wunderground v.1.15,2013-06-23 18:12:00,
2013-06-23 14:15:00,85.2,74.3,30.16,West,260,0.0,1.0,70,0.00,,,0.00,Wunderground v.1.15,2013-06-23 18:15:00,
2013-06-23 14:16:00,85.1,74.2,30.16,West,260,0.0,1.0,70,0.00,,,0.00,Wunderground v.1.15,2013-06-23 18:16:00,
2013-06-23 14:18:00,85.0,74.1,30.16,West,260,0.0,1.0,70,0.00,,,0.00,Wunderground v.1.15,2013-06-23 18:18:00,
2013-06-23 14:19:00,84.9,73.6,30.16,West,260,0.0,0.0,69,0.00,,,0.00,Wunderground v.1.15,2013-06-23 18:19:00,
2013-06-23 14:21:00,84.8,73.5,30.16,West,260,0.0,0.0,69,0.00,,,0.00,Wunderground v.1.15,2013-06-23 18:21:00,
2013-06-23 14:24:00,84.6,72.4,30.16,West,260,0.0,0.0,67,0.00,,,0.00,Wunderground v.1.15,2013-06-23 18:24:00,
2013-06-23 14:26:00,84.4,72.2,30.16,West,259,0.0,0.0,67,0.00,,,0.00,Wunderground v.1.15,2013-06-23 18:26:00,
2013-06-23 14:27:00,84.3,72.1,30.15,West,260,0.0,0.0,67,0.00,,,0.00,Wunderground v.1.15,2013-06-23 18:27:00,
2013-06-23 14:28:00,84.3,72.1,30.16,West,260,0.0,0.0,67,0.00,,,0.00,Wunderground v.1.15,2013-06-23 18:28:00,
2013-06-23 14:30:00,84.3,72.1,30.16,West,259,0.0,0.0,67,0.00,,,0.00,Wunderground v.1.15,2013-06-23 18:30:00,
2013-06-23 14:31:00,84.4,71.8,30.15,West,260,0.0,0.0,66,0.00,,,0.00,Wunderground v.1.15,2013-06-23 18:31:00,
2013-06-23 14:35:00,84.6,72.9,30.15,West,260,0.0,0.0,68,0.00,,,0.00,Wunderground v.1.15,2013-06-23 18:35:00,
2013-06-23 14:37:00,84.8,73.5,30.15,West,260,0.0,0.0,69,0.00,,,0.00,Wunderground v.1.15,2013-06-23 18:37:00,
2013-06-23 14:38:00,84.9,73.2,30.15,East,96,0.0,0.0,68,0.00,,,0.00,Wunderground v.1.15,2013-06-23 18:38:00,
2013-06-23 14:41:00,84.9,72.3,30.15,East,98,0.0,0.0,66,0.00,,,0.00,Wunderground v.1.15,2013-06-23 18:41:00,
2013-06-23 14:42:00,84.9,72.7,30.15,East,97,0.0,0.0,67,0.00,,,0.00,Wunderground v.1.15,2013-06-23 18:42:00,
2013-06-23 14:43:00,84.9,72.7,30.15,East,98,0.0,0.0,67,0.00,,,0.00,Wunderground v.1.15,2013-06-23 18:43:00,
2013-06-23 14:48:00,84.7,72.5,30.15,East,87,0.0,0.0,67,0.00,,,0.00,Wunderground v.1.15,2013-06-23 18:48:00,
2013-06-23 15:44:00,85.7,74.8,30.12,West,273,0.0,0.0,70,0.00,,,0.00,Wunderground v.1.15,2013-06-23 19:44:00,
2013-06-23 19:22:00,80.9,74.5,30.12,WSW,239,0.0,0.0,81,0.00,,,0.00,Wunderground v.1.15,2013-06-23 23:22:00,
2013-06-23 19:24:00,80.9,74.5,30.13,WSW,238,0.0,0.0,81,0.00,,,0.00,Wunderground v.1.15,2013-06-23 23:24:00,
2013-06-23 19:25:00,80.9,74.5,30.13,WSW,239,0.0,0.0,81,0.00,,,0.00,Wunderground v.1.15,2013-06-23 23:25:00,
2013-06-23 19:26:00,80.8,74.8,30.13,WSW,239,0.0,0.0,82,0.00,,,0.00,Wunderground v.1.15,2013-06-23 23:26:00,
2013-06-23 19:28:00,80.8,74.8,30.13,WSW,239,0.0,0.0,82,0.00,,,0.00,Wunderground v.1.15,2013-06-23 23:28:00,
2013-06-23 19:31:00,80.7,74.7,30.13,WSW,239,0.0,0.0,82,0.00,,,0.00,Wunderground v.1.15,2013-06-23 23:31:00,
2013-06-23 19:33:00,80.6,74.6,30.12,WSW,239,0.0,0.0,82,0.00,,,0.00,Wunderground v.1.15,2013-06-23 23:33:00,
2013-06-23 19:37:00,80.5,74.5,30.12,WSW,239,0.0,0.0,82,0.00,,,0.00,Wunderground v.1.15,2013-06-23 23:37:00,
2013-06-23 19:38:00,80.5,74.9,30.13,WSW,239,0.0,0.0,83,0.00,,,0.00,Wunderground v.1.15,2013-06-23 23:38:00,
2013-06-23 19:42:00,80.5,74.9,30.13,WSW,239,0.0,0.0,83,0.00,,,0.00,Wunderground v.1.15,2013-06-23 23:42:00,
2013-06-23 19:44:00,80.4,74.4,30.13,WSW,239,0.0,0.0,82,0.00,,,0.00,Wunderground v.1.15,2013-06-23 23:44:00,
2013-06-23 19:49:00,80.3,74.3,30.14,WSW,239,0.0,0.0,82,0.00,,,0.00,Wunderground v.1.15,2013-06-23 23:49:00,
2013-06-23 19:50:00,80.3,74.7,30.14,WSW,239,0.0,0.0,83,0.00,,,0.00,Wunderground v.1.15,2013-06-23 23:50:00,
2013-06-23 19:52:00,80.2,74.6,30.14,WSW,239,0.0,0.0,83,0.00,,,0.00,Wunderground v.1.15,2013-06-23 23:52:00,
2013-06-23 19:53:00,80.2,74.6,30.14,WSW,239,0.0,0.0,83,0.00,,,0.00,Wunderground v.1.15,2013-06-23 23:53:00,
2013-06-23 19:55:00,80.1,74.5,30.14,WSW,239,0.0,0.0,83,0.00,,,0.00,Wunderground v.1.15,2013-06-23 23:55:00,
2013-06-23 19:59:00,80.0,74.7,30.14,WSW,239,0.0,0.0,84,0.00,,,0.00,Wunderground v.1.15,2013-06-23 23:59:00,
2013-06-23 20:03:00,79.8,74.2,30.13,WSW,239,0.0,1.0,83,0.00,,,0.00,Wunderground v.1.15,2013-06-24 00:03:00,
2013-06-23 20:05:00,79.8,74.2,30.13,WSW,239,0.0,1.0,83,0.00,,,0.00,Wunderground v.1.15,2013-06-24 00:05:00,
2013-06-23 20:07:00,79.8,74.2,30.13,WSW,239,0.0,1.0,83,0.00,,,0.00,Wunderground v.1.15,2013-06-24 00:07:00,
2013-06-23 20:10:00,79.9,73.9,30.13,WSW,239,0.0,1.0,82,0.00,,,0.00,Wunderground v.1.15,2013-06-24 00:10:00,
2013-06-23 20:11:00,79.9,73.9,30.13,WSW,239,0.0,1.0,82,0.00,,,0.00,Wunderground v.1.15,2013-06-24 00:11:00,
2013-06-23 20:14:00,80.0,74.0,30.13,WSW,239,0.0,1.0,82,0.00,,,0.00,Wunderground v.1.15,2013-06-24 00:14:00,
2013-06-23 20:15:00,80.0,74.4,30.13,WSW,239,0.0,1.0,83,0.00,,,0.00,Wunderground v.1.15,2013-06-24 00:15:00,
2013-06-23 20:20:00,80.0,74.4,30.12,WSW,239,0.0,1.0,83,0.00,,,0.00,Wunderground v.1.15,2013-06-24 00:20:00,
2013-06-23 20:27:00,79.9,74.3,30.13,WSW,239,0.0,1.0,83,0.00,,,0.00,Wunderground v.1.15,2013-06-24 00:27:00,
2013-06-23 20:28:00,79.9,74.6,30.13,WSW,239,0.0,1.0,84,0.00,,,0.00,Wunderground v.1.15,2013-06-24 00:28:00,
2013-06-23 20:32:00,79.8,74.2,30.12,WSW,239,0.0,1.0,83,0.00,,,0.00,Wunderground v.1.15,2013-06-24 00:32:00,
2013-06-23 20:33:00,79.9,74.6,30.13,WSW,239,0.0,1.0,84,0.00,,,0.00,Wunderground v.1.15,2013-06-24 00:33:00,
2013-06-23 20:34:00,79.8,74.5,30.13,WSW,239,0.0,1.0,84,0.00,,,0.00,Wunderground v.1.15,2013-06-24 00:34:00,
2013-06-23 20:36:00,79.8,74.5,30.12,WSW,239,0.0,1.0,84,0.00,,,0.00,Wunderground v.1.15,2013-06-24 00:36:00,
2013-06-23 20:38:00,79.8,74.5,30.12,WSW,239,0.0,1.0,84,0.00,,,0.00,Wunderground v.1.15,2013-06-24 00:38:00,
2013-06-23 20:39:00,79.7,74.4,30.12,WSW,239,0.0,1.0,84,0.00,,,0.00,Wunderground v.1.15,2013-06-24 00:39:00,
2013-06-23 20:43:00,79.7,74.4,30.12,WSW,239,0.0,1.0,84,0.00,,,0.00,Wunderground v.1.15,2013-06-24 00:43:00,
2013-06-23 20:44:00,79.7,74.4,30.12,WSW,238,0.0,1.0,84,0.00,,,0.00,Wunderground v.1.15,2013-06-24 00:44:00,
2013-06-23 20:46:00,79.7,74.4,30.13,WSW,239,0.0,1.0,84,0.00,,,0.00,Wunderground v.1.15,2013-06-24 00:46:00,
2013-06-23 20:49:00,79.6,74.3,30.13,WSW,237,0.0,1.0,84,0.00,,,0.00,Wunderground v.1.15,2013-06-24 00:49:00,
2013-06-23 20:52:00,79.5,74.6,30.13,WSW,239,0.0,1.0,85,0.00,,,0.00,Wunderground v.1.15,2013-06-24 00:52:00,
2013-06-23 20:53:00,79.5,74.6,30.13,WSW,237,0.0,1.0,85,0.00,,,0.00,Wunderground v.1.15,2013-06-24 00:53:00,
2013-06-23 20:55:00,79.4,74.5,30.13,WSW,237,0.0,1.0,85,0.00,,,0.00,Wunderground v.1.15,2013-06-24 00:55:00,
2013-06-23 20:56:00,79.4,74.5,30.13,WSW,237,0.0,1.0,85,0.00,,,0.00,Wunderground v.1.15,2013-06-24 00:56:00,
2013-06-23 20:58:00,79.3,74.4,30.13,WSW,239,0.0,1.0,85,0.00,,,0.00,Wunderground v.1.15,2013-06-24 00:58:00,
2013-06-23 20:59:00,79.3,74.4,30.13,WSW,239,0.0,1.0,85,0.00,,,0.00,Wunderground v.1.15,2013-06-24 00:59:00,
2013-06-23 21:02:00,79.3,74.4,30.13,WSW,238,0.0,1.0,85,0.00,,,0.00,Wunderground v.1.15,2013-06-24 01:02:00,
2013-06-23 21:04:00,79.2,74.3,30.14,WSW,237,0.0,1.0,85,0.00,,,0.00,Wunderground v.1.15,2013-06-24 01:04:00,
2013-06-23 21:05:00,79.2,74.3,30.14,WSW,237,0.0,1.0,85,0.00,,,0.00,Wunderground v.1.15,2013-06-24 01:05:00,
2013-06-23 21:08:00,79.2,74.3,30.14,WSW,238,0.0,1.0,85,0.00,,,0.00,Wunderground v.1.15,2013-06-24 01:08:00,
2013-06-23 21:09:00,79.1,74.2,30.14,WSW,238,0.0,1.0,85,0.00,,,0.00,Wunderground v.1.15,2013-06-24 01:09:00,
2013-06-23 21:10:00,79.1,74.2,30.14,WSW,237,0.0,1.0,85,0.00,,,0.00,Wunderground v.1.15,2013-06-24 01:10:00,
2013-06-23 21:12:00,79.1,74.5,30.14,WSW,238,0.0,1.0,86,0.00,,,0.00,Wunderground v.1.15,2013-06-24 01:12:00,
2013-06-23 21:17:00,78.9,74.4,30.14,WSW,237,0.0,1.0,86,0.00,,,0.00,Wunderground v.1.15,2013-06-24 01:17:00,
2013-06-23 21:18:00,78.9,74.4,30.14,SW,236,0.0,1.0,86,0.00,,,0.00,Wunderground v.1.15,2013-06-24 01:18:00,
2013-06-23 21:20:00,78.9,74.4,30.14,SW,236,0.0,1.0,86,0.00,,,0.00,Wunderground v.1.15,2013-06-24 01:20:00,
2013-06-23 21:21:00,78.8,74.3,30.14,SW,236,0.0,1.0,86,0.00,,,0.00,Wunderground v.1.15,2013-06-24 01:21:00,
2013-06-23 21:23:00,78.8,74.3,30.14,SW,236,0.0,1.0,86,0.00,,,0.00,Wunderground v.1.15,2013-06-24 01:23:00,
2013-06-23 21:24:00,78.8,74.3,30.14,SW,236,0.0,1.0,86,0.00,,,0.00,Wunderground v.1.15,2013-06-24 01:24:00,
2013-06-23 21:26:00,78.7,74.2,30.14,SW,236,0.0,1.0,86,0.00,,,0.00,Wunderground v.1.15,2013-06-24 01:26:00,
2013-06-23 21:28:00,78.7,74.2,30.14,SW,236,0.0,1.0,86,0.00,,,0.00,Wunderground v.1.15,2013-06-24 01:28:00,
2013-06-23 21:34:00,78.6,74.4,30.14,WSW,251,0.0,1.0,87,0.00,,,0.00,Wunderground v.1.15,2013-06-24 01:34:00,
2013-06-23 21:35:00,78.6,74.4,30.13,WSW,252,0.0,1.0,87,0.00,,,0.00,Wunderground v.1.15,2013-06-24 01:35:00,
2013-06-23 21:37:00,78.5,74.3,30.13,WSW,251,0.0,1.0,87,0.00,,,0.00,Wunderground v.1.15,2013-06-24 01:37:00,
2013-06-23 21:40:00,78.5,74.3,30.13,WSW,252,0.0,1.0,87,0.00,,,0.00,Wunderground v.1.15,2013-06-24 01:40:00,
2013-06-23 21:41:00,78.4,74.2,30.14,WSW,251,0.0,1.0,87,0.00,,,0.00,Wunderground v.1.15,2013-06-24 01:41:00,
2013-06-23 21:46:00,78.3,74.5,30.14,WSW,252,0.0,1.0,88,0.00,,,0.00,Wunderground v.1.15,2013-06-24 01:46:00,
2013-06-23 21:47:00,78.2,74.4,30.14,WSW,252,0.0,1.0,88,0.00,,,0.00,Wunderground v.1.15,2013-06-24 01:47:00,
2013-06-23 21:50:00,78.1,74.3,30.14,WSW,252,0.0,1.0,88,0.00,,,0.00,Wunderground v.1.15,2013-06-24 01:50:00,
2013-06-23 21:53:00,78.0,74.2,30.14,WSW,251,0.0,1.0,88,0.00,,,0.00,Wunderground v.1.15,2013-06-24 01:53:00,
2013-06-23 21:55:00,77.9,74.1,30.14,WSW,251,0.0,1.0,88,0.00,,,0.00,Wunderground v.1.15,2013-06-24 01:55:00,
2013-06-23 21:56:00,77.9,74.4,30.14,WSW,252,0.0,1.0,89,0.00,,,0.00,Wunderground v.1.15,2013-06-24 01:56:00,
2013-06-23 21:57:00,77.8,74.3,30.14,WSW,252,0.0,1.0,89,0.00,,,0.00,Wunderground v.1.15,2013-06-24 01:57:00,
2013-06-23 21:59:00,77.7,74.2,30.14,WSW,251,0.0,1.0,89,0.00,,,0.00,Wunderground v.1.15,2013-06-24 01:59:00,
2013-06-23 22:00:00,77.7,74.2,30.14,WSW,252,0.0,1.0,89,0.00,,,0.00,Wunderground v.1.15,2013-06-24 02:00:00,
2013-06-23 22:01:00,77.7,74.2,30.14,WSW,252,0.0,1.0,89,0.00,,,0.00,Wunderground v.1.15,2013-06-24 02:01:00,
2013-06-23 22:02:00,77.7,74.2,30.14,WSW,252,0.0,1.0,89,0.00,,,0.00,Wunderground v.1.15,2013-06-24 02:02:00,
2013-06-23 22:05:00,77.6,74.1,30.15,WSW,251,0.0,1.0,89,0.00,,,0.00,Wunderground v.1.15,2013-06-24 02:05:00,
2013-06-23 22:06:00,77.5,74.0,30.15,WSW,252,0.0,1.0,89,0.00,,,0.00,Wunderground v.1.15,2013-06-24 02:06:00,
2013-06-23 22:07:00,77.5,74.0,30.15,WSW,252,0.0,1.0,89,0.00,,,0.00,Wunderground v.1.15,2013-06-24 02:07:00,
2013-06-23 22:08:00,77.5,74.0,30.15,WSW,252,0.0,1.0,89,0.00,,,0.00,Wunderground v.1.15,2013-06-24 02:08:00,
2013-06-23 22:11:00,77.4,74.2,30.15,WSW,251,0.0,1.0,90,0.00,,,0.00,Wunderground v.1.15,2013-06-24 02:11:00,
2013-06-23 22:12:00,77.4,74.2,30.15,WSW,252,0.0,1.0,90,0.00,,,0.00,Wunderground v.1.15,2013-06-24 02:12:00,
2013-06-23 22:14:00,77.4,74.2,30.15,WSW,252,0.0,1.0,90,0.00,,,0.00,Wunderground v.1.15,2013-06-24 02:14:00,
2013-06-23 22:17:00,77.3,74.1,30.15,WSW,252,0.0,1.0,90,0.00,,,0.00,Wunderground v.1.15,2013-06-24 02:17:00,
2013-06-23 22:19:00,77.3,74.1,30.15,WSW,252,0.0,1.0,90,0.00,,,0.00,Wunderground v.1.15,2013-06-24 02:19:00,
2013-06-23 22:20:00,77.2,74.0,30.15,WSW,251,0.0,1.0,90,0.00,,,0.00,Wunderground v.1.15,2013-06-24 02:20:00,
2013-06-23 22:21:00,77.2,74.0,30.15,WSW,252,0.0,1.0,90,0.00,,,0.00,Wunderground v.1.15,2013-06-24 02:21:00,
2013-06-23 22:22:00,77.2,74.0,30.15,WSW,252,0.0,1.0,90,0.00,,,0.00,Wunderground v.1.15,2013-06-24 02:22:00,
2013-06-23 22:25:00,77.1,73.9,30.15,WSW,251,0.0,1.0,90,0.00,,,0.00,Wunderground v.1.15,2013-06-24 02:25:00,
2013-06-23 22:28:00,77.0,74.2,30.15,WSW,251,0.0,1.0,91,0.00,,,0.00,Wunderground v.1.15,2013-06-24 02:28:00,
2013-06-23 22:31:00,76.8,74.0,30.15,WSW,251,0.0,1.0,91,0.00,,,0.00,Wunderground v.1.15,2013-06-24 02:31:00,
2013-06-23 22:32:00,76.8,74.0,30.15,WSW,251,0.0,1.0,91,0.00,,,0.00,Wunderground v.1.15,2013-06-24 02:32:00,
2013-06-23 22:33:00,76.8,74.0,30.15,WSW,252,0.0,1.0,91,0.00,,,0.00,Wunderground v.1.15,2013-06-24 02:33:00,
2013-06-23 22:34:00,76.8,74.0,30.15,WSW,252,0.0,1.0,91,0.00,,,0.00,Wunderground v.1.15,2013-06-24 02:34:00,
2013-06-23 22:35:00,76.7,73.9,30.15,WSW,252,0.0,1.0,91,0.00,,,0.00,Wunderground v.1.15,2013-06-24 02:35:00,
2013-06-23 22:38:00,76.6,73.8,30.15,WSW,252,0.0,1.0,91,0.00,,,0.00,Wunderground v.1.15,2013-06-24 02:38:00,
2013-06-23 22:39:00,76.6,73.8,30.15,WSW,252,0.0,1.0,91,0.00,,,0.00,Wunderground v.1.15,2013-06-24 02:39:00,
2013-06-23 22:40:00,76.6,73.8,30.15,WSW,252,0.0,1.0,91,0.00,,,0.00,Wunderground v.1.15,2013-06-24 02:40:00,
2013-06-23 22:43:00,76.6,73.8,30.15,WSW,251,0.0,1.0,91,0.00,,,0.00,Wunderground v.1.15,2013-06-24 02:43:00,
2013-06-23 22:45:00,76.7,73.9,30.15,WSW,252,0.0,1.0,91,0.00,,,0.00,Wunderground v.1.15,2013-06-24 02:45:00,
2013-06-23 22:47:00,76.7,74.2,30.15,WSW,252,0.0,1.0,92,0.00,,,0.00,Wunderground v.1.15,2013-06-24 02:47:00,
2013-06-23 22:48:00,76.7,74.2,30.15,WSW,252,0.0,1.0,92,0.00,,,0.00,Wunderground v.1.15,2013-06-24 02:48:00,
2013-06-23 22:50:00,76.7,74.2,30.15,WSW,252,0.0,1.0,92,0.00,,,0.00,Wunderground v.1.15,2013-06-24 02:50:00,
2013-06-23 22:51:00,76.7,73.9,30.15,WSW,252,0.0,1.0,91,0.00,,,0.00,Wunderground v.1.15,2013-06-24 02:51:00,
2013-06-23 22:52:00,76.8,74.0,30.15,WSW,252,0.0,1.0,91,0.00,,,0.00,Wunderground v.1.15,2013-06-24 02:52:00,
2013-06-23 22:53:00,76.8,74.0,30.15,WSW,251,0.0,1.0,91,0.00,,,0.00,Wunderground v.1.15,2013-06-24 02:53:00,
2013-06-23 22:54:00,76.8,74.0,30.15,WSW,252,0.0,1.0,91,0.00,,,0.00,Wunderground v.1.15,2013-06-24 02:54:00,
2013-06-23 22:58:00,76.7,73.9,30.15,WSW,252,0.0,1.0,91,0.00,,,0.00,Wunderground v.1.15,2013-06-24 02:58:00,
2013-06-23 23:00:00,76.7,73.9,30.15,WSW,252,0.0,1.0,91,0.00,,,0.00,Wunderground v.1.15,2013-06-24 03:00:00,
2013-06-23 23:03:00,76.6,73.8,30.15,WSW,252,0.0,1.0,91,0.00,,,0.00,Wunderground v.1.15,2013-06-24 03:03:00,
2013-06-23 23:05:00,76.6,73.8,30.15,WSW,251,0.0,1.0,91,0.00,,,0.00,Wunderground v.1.15,2013-06-24 03:05:00,
2013-06-23 23:06:00,76.6,73.8,30.15,WSW,255,0.0,1.0,91,0.00,,,0.00,Wunderground v.1.15,2013-06-24 03:06:00,
2013-06-23 23:10:00,76.5,73.7,30.15,WSW,255,0.0,1.0,91,0.00,,,0.00,Wunderground v.1.15,2013-06-24 03:10:00,
2013-06-23 23:11:00,76.4,73.6,30.15,WSW,255,0.0,1.0,91,0.00,,,0.00,Wunderground v.1.15,2013-06-24 03:11:00,
2013-06-23 23:12:00,76.4,73.6,30.15,WSW,255,0.0,1.0,91,0.00,,,0.00,Wunderground v.1.15,2013-06-24 03:12:00,
2013-06-23 23:13:00,76.4,73.6,30.15,WSW,255,0.0,1.0,91,0.00,,,0.00,Wunderground v.1.15,2013-06-24 03:13:00,
2013-06-23 23:15:00,76.3,73.5,30.15,WSW,255,0.0,1.0,91,0.00,,,0.00,Wunderground v.1.15,2013-06-24 03:15:00,
2013-06-23 23:18:00,76.2,73.4,30.15,WSW,255,0.0,1.0,91,0.00,,,0.00,Wunderground v.1.15,2013-06-24 03:18:00,
2013-06-23 23:20:00,76.1,73.0,30.15,WSW,255,0.0,1.0,90,0.00,,,0.00,Wunderground v.1.15,2013-06-24 03:20:00,
2013-06-23 23:21:00,76.1,73.0,30.15,WSW,255,0.0,1.0,90,0.00,,,0.00,Wunderground v.1.15,2013-06-24 03:21:00,
2013-06-23 23:22:00,76.0,72.9,30.15,WSW,255,0.0,1.0,90,0.00,,,0.00,Wunderground v.1.15,2013-06-24 03:22:00,
2013-06-23 23:24:00,76.0,72.9,30.15,WSW,255,0.0,1.0,90,0.00,,,0.00,Wunderground v.1.15,2013-06-24 03:24:00,
2013-06-23 23:25:00,76.0,72.9,30.16,WSW,255,0.0,1.0,90,0.00,,,0.00,Wunderground v.1.15,2013-06-24 03:25:00,
2013-06-23 23:27:00,75.9,72.8,30.15,WSW,255,0.0,1.0,90,0.00,,,0.00,Wunderground v.1.15,2013-06-24 03:27:00,
2013-06-23 23:31:00,75.8,72.7,30.16,WSW,255,0.0,1.0,90,0.00,,,0.00,Wunderground v.1.15,2013-06-24 03:31:00,
2013-06-23 23:33:00,75.7,72.6,30.16,WSW,255,0.0,1.0,90,0.00,,,0.00,Wunderground v.1.15,2013-06-24 03:33:00,
2013-06-23 23:34:00,75.7,72.6,30.16,WSW,255,0.0,1.0,90,0.00,,,0.00,Wunderground v.1.15,2013-06-24 03:34:00,
2013-06-23 23:35:00,75.7,72.6,30.16,WSW,255,0.0,1.0,90,0.00,,,0.00,Wunderground v.1.15,2013-06-24 03:35:00,
2013-06-23 23:39:00,75.5,72.4,30.16,WSW,255,0.0,1.0,90,0.00,,,0.00,Wunderground v.1.15,2013-06-24 03:39:00,
2013-06-23 23:41:00,75.5,72.4,30.16,WSW,255,0.0,1.0,90,0.00,,,0.00,Wunderground v.1.15,2013-06-24 03:41:00,
2013-06-23 23:43:00,75.4,72.3,30.16,WSW,255,0.0,1.0,90,0.00,,,0.00,Wunderground v.1.15,2013-06-24 03:43:00,
2013-06-23 23:44:00,75.3,72.2,30.16,WSW,255,0.0,1.0,90,0.00,,,0.00,Wunderground v.1.15,2013-06-24 03:44:00,
2013-06-23 23:45:00,75.3,72.2,30.16,WSW,255,0.0,1.0,90,0.00,,,0.00,Wunderground v.1.15,2013-06-24 03:45:00,
2013-06-23 23:47:00,75.2,72.1,30.16,WSW,255,0.0,1.0,90,0.00,,,0.00,Wunderground v.1.15,2013-06-24 03:47:00,
2013-06-23 23:50:00,75.1,72.3,30.16,WSW,255,0.0,1.0,91,0.00,,,0.00,Wunderground v.1.15,2013-06-24 03:50:00,
2013-06-23 23:52:00,75.0,72.2,30.16,WSW,255,0.0,1.0,91,0.00,,,0.00,Wunderground v.1.15,2013-06-24 03:52:00,
2013-06-23 23:53:00,75.0,72.2,30.16,WSW,255,0.0,1.0,91,0.00,,,0.00,Wunderground v.1.15,2013-06-24 03:53:00,
2013-06-23 23:55:00,74.9,71.8,30.16,WSW,255,0.0,1.0,90,0.00,,,0.00,Wunderground v.1.15,2013-06-24 03:55:00,
2013-06-23 23:57:00,74.8,71.7,30.16,WSW,255,0.0,1.0,90,0.00,,,0.00,Wunderground v.1.15,2013-06-24 03:57:00,
2013-06-23 23:59:00,74.8,71.7,30.16,WSW,255,0.0,1.0,90,0.00,,,0.00,Wunderground v.1.15,2013-06-24 03:59:00,